sensor_id;sensor_type;location;lat;lon;timestamp;P1;durP1;ratioP1;P2;durP2;ratioP2
71303;SDS011;59091;47.446;19.148;2023-03-20T00:01:19;25.17;;;11.40;;
71303;SDS011;59091;47.446;19.148;2023-03-20T00:03:45;19.42;;;11.02;;
71303;SDS011;59091;47.446;19.148;2023-03-20T00:06:18;21.90;;;10.85;;
71303;SDS011;59091;47.446;19.148;2023-03-20T00:08:50;17.15;;;10.18;;
71303;SDS011;59091;47.446;19.148;2023-03-20T00:14:08;19.27;;;10.43;;
71303;SDS011;59091;47.446;19.148;2023-03-20T00:16:36;22.45;;;10.88;;
71303;SDS011;59091;47.446;19.148;2023-03-20T00:19:03;22.98;;;10.80;;
71303;SDS011;59091;47.446;19.148;2023-03-20T00:21:30;17.05;;;10.27;;
71303;SDS011;59091;47.446;19.148;2023-03-20T00:23:56;21.50;;;11.07;;
71303;SDS011;59091;47.446;19.148;2023-03-20T00:26:25;20.90;;;11.30;;
71303;SDS011;59091;47.446;19.148;2023-03-20T00:28:55;22.00;;;11.32;;
71303;SDS011;59091;47.446;19.148;2023-03-20T00:31:32;22.08;;;10.98;;
71303;SDS011;59091;47.446;19.148;2023-03-20T00:34:04;21.48;;;10.77;;
71303;SDS011;59091;47.446;19.148;2023-03-20T00:36:34;21.88;;;10.88;;
71303;SDS011;59091;47.446;19.148;2023-03-20T00:38:59;23.48;;;10.90;;
71303;SDS011;59091;47.446;19.148;2023-03-20T00:43:57;20.17;;;10.73;;
71303;SDS011;59091;47.446;19.148;2023-03-20T00:46:24;19.42;;;10.60;;
71303;SDS011;59091;47.446;19.148;2023-03-20T00:48:51;17.42;;;10.05;;
71303;SDS011;59091;47.446;19.148;2023-03-20T00:51:17;18.40;;;10.77;;
71303;SDS011;59091;47.446;19.148;2023-03-20T00:53:43;23.92;;;10.73;;
71303;SDS011;59091;47.446;19.148;2023-03-20T00:56:27;18.23;;;10.10;;
71303;SDS011;59091;47.446;19.148;2023-03-20T00:59:00;20.15;;;10.52;;
71303;SDS011;59091;47.446;19.148;2023-03-20T01:01:28;17.73;;;10.07;;
71303;SDS011;59091;47.446;19.148;2023-03-20T01:03:55;17.38;;;10.70;;
71303;SDS011;59091;47.446;19.148;2023-03-20T01:06:20;17.83;;;9.90;;
71303;SDS011;59091;47.446;19.148;2023-03-20T01:08:46;19.08;;;10.40;;
71303;SDS011;59091;47.446;19.148;2023-03-20T01:11:13;17.35;;;10.20;;
71303;SDS011;59091;47.446;19.148;2023-03-20T01:13:40;19.90;;;10.88;;
71303;SDS011;59091;47.446;19.148;2023-03-20T01:16:11;18.77;;;10.57;;
71303;SDS011;59091;47.446;19.148;2023-03-20T01:18:44;23.38;;;10.77;;
71303;SDS011;59091;47.446;19.148;2023-03-20T01:21:09;19.55;;;9.82;;
71303;SDS011;59091;47.446;19.148;2023-03-20T01:23:36;19.08;;;11.00;;
71303;SDS011;59091;47.446;19.148;2023-03-20T01:26:01;20.88;;;10.63;;
71303;SDS011;59091;47.446;19.148;2023-03-20T01:28:27;24.27;;;11.70;;
71303;SDS011;59091;47.446;19.148;2023-03-20T01:30:54;26.20;;;12.00;;
71303;SDS011;59091;47.446;19.148;2023-03-20T01:33:21;23.88;;;11.95;;
71303;SDS011;59091;47.446;19.148;2023-03-20T01:35:48;21.02;;;12.07;;
71303;SDS011;59091;47.446;19.148;2023-03-20T01:38:18;23.15;;;11.40;;
71303;SDS011;59091;47.446;19.148;2023-03-20T01:40:48;20.77;;;11.07;;
71303;SDS011;59091;47.446;19.148;2023-03-20T01:43:21;22.40;;;11.73;;
71303;SDS011;59091;47.446;19.148;2023-03-20T01:46:33;23.67;;;12.10;;
71303;SDS011;59091;47.446;19.148;2023-03-20T01:51:19;21.10;;;11.30;;
71303;SDS011;59091;47.446;19.148;2023-03-20T01:53:47;25.35;;;11.07;;
71303;SDS011;59091;47.446;19.148;2023-03-20T01:56:22;19.90;;;11.65;;
71303;SDS011;59091;47.446;19.148;2023-03-20T01:58:53;21.58;;;10.85;;
71303;SDS011;59091;47.446;19.148;2023-03-20T02:01:24;24.35;;;10.90;;
71303;SDS011;59091;47.446;19.148;2023-03-20T02:03:51;20.10;;;11.52;;
71303;SDS011;59091;47.446;19.148;2023-03-20T02:06:18;24.80;;;11.20;;
71303;SDS011;59091;47.446;19.148;2023-03-20T02:08:48;19.42;;;10.65;;
71303;SDS011;59091;47.446;19.148;2023-03-20T02:11:16;19.80;;;10.98;;
71303;SDS011;59091;47.446;19.148;2023-03-20T02:13:44;17.08;;;10.20;;
71303;SDS011;59091;47.446;19.148;2023-03-20T02:16:14;18.75;;;10.82;;
71303;SDS011;59091;47.446;19.148;2023-03-20T02:18:45;19.05;;;10.70;;
71303;SDS011;59091;47.446;19.148;2023-03-20T02:24:32;18.38;;;10.80;;
71303;SDS011;59091;47.446;19.148;2023-03-20T02:36:23;16.35;;;9.95;;
71303;SDS011;59091;47.446;19.148;2023-03-20T02:47:41;21.45;;;10.63;;
71303;SDS011;59091;47.446;19.148;2023-03-20T02:50:35;17.67;;;9.75;;
71303;SDS011;59091;47.446;19.148;2023-03-20T02:53:17;21.15;;;9.95;;
71303;SDS011;59091;47.446;19.148;2023-03-20T02:55:46;18.40;;;10.27;;
71303;SDS011;59091;47.446;19.148;2023-03-20T02:58:29;24.13;;;10.95;;
71303;SDS011;59091;47.446;19.148;2023-03-20T03:01:08;18.52;;;9.77;;
71303;SDS011;59091;47.446;19.148;2023-03-20T03:06:21;16.95;;;10.00;;
71303;SDS011;59091;47.446;19.148;2023-03-20T03:08:53;18.27;;;10.20;;
71303;SDS011;59091;47.446;19.148;2023-03-20T03:11:24;19.65;;;10.57;;
71303;SDS011;59091;47.446;19.148;2023-03-20T03:13:52;20.13;;;10.13;;
71303;SDS011;59091;47.446;19.148;2023-03-20T03:16:23;16.50;;;9.48;;
71303;SDS011;59091;47.446;19.148;2023-03-20T03:18:58;19.73;;;10.63;;
71303;SDS011;59091;47.446;19.148;2023-03-20T03:21:37;19.08;;;10.68;;
71303;SDS011;59091;47.446;19.148;2023-03-20T03:24:04;14.50;;;9.45;;
71303;SDS011;59091;47.446;19.148;2023-03-20T03:26:31;16.63;;;10.40;;
71303;SDS011;59091;47.446;19.148;2023-03-20T03:29:11;20.05;;;10.68;;
71303;SDS011;59091;47.446;19.148;2023-03-20T03:31:41;21.75;;;9.90;;
71303;SDS011;59091;47.446;19.148;2023-03-20T03:34:10;19.30;;;11.05;;
71303;SDS011;59091;47.446;19.148;2023-03-20T03:42:00;25.88;;;11.57;;
71303;SDS011;59091;47.446;19.148;2023-03-20T03:47:09;22.10;;;10.93;;
71303;SDS011;59091;47.446;19.148;2023-03-20T03:49:45;22.40;;;11.68;;
71303;SDS011;59091;47.446;19.148;2023-03-20T03:52:15;19.65;;;11.13;;
71303;SDS011;59091;47.446;19.148;2023-03-20T03:54:50;19.85;;;11.93;;
71303;SDS011;59091;47.446;19.148;2023-03-20T03:57:23;21.00;;;11.35;;
71303;SDS011;59091;47.446;19.148;2023-03-20T03:59:55;20.58;;;10.80;;
71303;SDS011;59091;47.446;19.148;2023-03-20T04:02:22;20.35;;;10.27;;
71303;SDS011;59091;47.446;19.148;2023-03-20T04:04:49;21.42;;;11.60;;
71303;SDS011;59091;47.446;19.148;2023-03-20T04:07:16;22.17;;;11.73;;
71303;SDS011;59091;47.446;19.148;2023-03-20T04:09:42;20.58;;;11.13;;
71303;SDS011;59091;47.446;19.148;2023-03-20T04:15:02;23.17;;;11.05;;
71303;SDS011;59091;47.446;19.148;2023-03-20T04:17:28;25.13;;;11.77;;
71303;SDS011;59091;47.446;19.148;2023-03-20T04:19:54;19.70;;;11.35;;
71303;SDS011;59091;47.446;19.148;2023-03-20T04:22:20;21.00;;;12.18;;
71303;SDS011;59091;47.446;19.148;2023-03-20T04:24:45;20.85;;;12.15;;
71303;SDS011;59091;47.446;19.148;2023-03-20T04:27:11;20.75;;;12.68;;
71303;SDS011;59091;47.446;19.148;2023-03-20T04:29:36;20.95;;;11.10;;
71303;SDS011;59091;47.446;19.148;2023-03-20T04:32:02;19.95;;;11.15;;
71303;SDS011;59091;47.446;19.148;2023-03-20T04:34:27;27.55;;;12.00;;
71303;SDS011;59091;47.446;19.148;2023-03-20T04:36:53;21.40;;;12.20;;
71303;SDS011;59091;47.446;19.148;2023-03-20T04:39:18;23.05;;;11.55;;
71303;SDS011;59091;47.446;19.148;2023-03-20T04:41:44;21.52;;;11.60;;
71303;SDS011;59091;47.446;19.148;2023-03-20T04:44:10;24.27;;;11.25;;
71303;SDS011;59091;47.446;19.148;2023-03-20T04:46:35;20.10;;;11.25;;
71303;SDS011;59091;47.446;19.148;2023-03-20T04:49:00;22.10;;;11.10;;
71303;SDS011;59091;47.446;19.148;2023-03-20T04:51:26;19.67;;;10.52;;
71303;SDS011;59091;47.446;19.148;2023-03-20T04:53:52;21.08;;;10.88;;
71303;SDS011;59091;47.446;19.148;2023-03-20T04:56:17;20.08;;;11.32;;
71303;SDS011;59091;47.446;19.148;2023-03-20T04:58:43;23.42;;;11.15;;
71303;SDS011;59091;47.446;19.148;2023-03-20T05:01:08;20.13;;;10.93;;
71303;SDS011;59091;47.446;19.148;2023-03-20T05:03:34;22.27;;;11.02;;
71303;SDS011;59091;47.446;19.148;2023-03-20T05:05:59;22.15;;;11.25;;
71303;SDS011;59091;47.446;19.148;2023-03-20T05:08:25;21.42;;;10.63;;
71303;SDS011;59091;47.446;19.148;2023-03-20T05:10:51;22.33;;;10.20;;
71303;SDS011;59091;47.446;19.148;2023-03-20T05:13:17;22.38;;;10.90;;
71303;SDS011;59091;47.446;19.148;2023-03-20T05:15:42;24.60;;;11.93;;
71303;SDS011;59091;47.446;19.148;2023-03-20T05:18:08;21.80;;;11.38;;
71303;SDS011;59091;47.446;19.148;2023-03-20T05:20:33;23.58;;;10.45;;
71303;SDS011;59091;47.446;19.148;2023-03-20T05:23:00;17.13;;;10.43;;
71303;SDS011;59091;47.446;19.148;2023-03-20T05:25:26;19.65;;;10.80;;
71303;SDS011;59091;47.446;19.148;2023-03-20T05:27:51;19.80;;;11.60;;
71303;SDS011;59091;47.446;19.148;2023-03-20T05:30:17;17.83;;;11.13;;
71303;SDS011;59091;47.446;19.148;2023-03-20T05:32:43;19.63;;;11.30;;
71303;SDS011;59091;47.446;19.148;2023-03-20T05:35:10;19.05;;;11.48;;
71303;SDS011;59091;47.446;19.148;2023-03-20T05:37:36;19.50;;;10.68;;
71303;SDS011;59091;47.446;19.148;2023-03-20T05:40:03;23.02;;;11.07;;
71303;SDS011;59091;47.446;19.148;2023-03-20T05:42:29;19.40;;;11.07;;
71303;SDS011;59091;47.446;19.148;2023-03-20T05:44:54;22.55;;;10.85;;
71303;SDS011;59091;47.446;19.148;2023-03-20T05:47:20;25.48;;;10.95;;
71303;SDS011;59091;47.446;19.148;2023-03-20T05:49:45;16.63;;;10.40;;
71303;SDS011;59091;47.446;19.148;2023-03-20T05:52:10;22.20;;;10.63;;
71303;SDS011;59091;47.446;19.148;2023-03-20T05:54:36;19.25;;;9.35;;
71303;SDS011;59091;47.446;19.148;2023-03-20T05:57:01;20.98;;;9.48;;
71303;SDS011;59091;47.446;19.148;2023-03-20T05:59:27;17.80;;;9.57;;
71303;SDS011;59091;47.446;19.148;2023-03-20T06:01:52;19.55;;;9.85;;
71303;SDS011;59091;47.446;19.148;2023-03-20T06:04:17;18.95;;;9.45;;
71303;SDS011;59091;47.446;19.148;2023-03-20T06:06:43;18.48;;;9.30;;
71303;SDS011;59091;47.446;19.148;2023-03-20T06:09:08;22.30;;;9.45;;
71303;SDS011;59091;47.446;19.148;2023-03-20T06:11:34;19.40;;;9.18;;
71303;SDS011;59091;47.446;19.148;2023-03-20T06:14:00;19.05;;;9.13;;
71303;SDS011;59091;47.446;19.148;2023-03-20T06:16:25;17.80;;;9.25;;
71303;SDS011;59091;47.446;19.148;2023-03-20T06:18:51;26.88;;;9.18;;
71303;SDS011;59091;47.446;19.148;2023-03-20T06:21:16;14.48;;;9.05;;
71303;SDS011;59091;47.446;19.148;2023-03-20T06:23:42;15.65;;;9.10;;
71303;SDS011;59091;47.446;19.148;2023-03-20T06:26:07;19.48;;;9.05;;
71303;SDS011;59091;47.446;19.148;2023-03-20T06:28:33;18.77;;;9.43;;
71303;SDS011;59091;47.446;19.148;2023-03-20T06:30:58;14.15;;;9.25;;
71303;SDS011;59091;47.446;19.148;2023-03-20T06:33:24;16.90;;;9.40;;
71303;SDS011;59091;47.446;19.148;2023-03-20T06:35:50;18.13;;;9.15;;
71303;SDS011;59091;47.446;19.148;2023-03-20T06:38:15;17.40;;;9.63;;
71303;SDS011;59091;47.446;19.148;2023-03-20T06:40:41;19.38;;;10.32;;
71303;SDS011;59091;47.446;19.148;2023-03-20T06:43:07;18.48;;;8.73;;
71303;SDS011;59091;47.446;19.148;2023-03-20T06:45:33;14.90;;;9.07;;
71303;SDS011;59091;47.446;19.148;2023-03-20T06:47:58;14.05;;;8.50;;
71303;SDS011;59091;47.446;19.148;2023-03-20T06:50:24;19.73;;;9.20;;
71303;SDS011;59091;47.446;19.148;2023-03-20T06:52:49;26.90;;;9.30;;
71303;SDS011;59091;47.446;19.148;2023-03-20T06:55:16;17.80;;;9.60;;
71303;SDS011;59091;47.446;19.148;2023-03-20T06:57:41;17.25;;;9.65;;
71303;SDS011;59091;47.446;19.148;2023-03-20T07:00:07;20.65;;;9.88;;
71303;SDS011;59091;47.446;19.148;2023-03-20T07:02:34;16.88;;;9.68;;
71303;SDS011;59091;47.446;19.148;2023-03-20T07:05:00;19.77;;;9.88;;
71303;SDS011;59091;47.446;19.148;2023-03-20T07:07:25;17.00;;;9.68;;
71303;SDS011;59091;47.446;19.148;2023-03-20T07:09:51;16.38;;;9.98;;
71303;SDS011;59091;47.446;19.148;2023-03-20T07:12:16;16.38;;;9.75;;
71303;SDS011;59091;47.446;19.148;2023-03-20T07:14:44;14.55;;;8.93;;
71303;SDS011;59091;47.446;19.148;2023-03-20T07:17:10;17.60;;;9.10;;
71303;SDS011;59091;47.446;19.148;2023-03-20T07:19:36;15.43;;;8.73;;
71303;SDS011;59091;47.446;19.148;2023-03-20T07:22:03;16.33;;;8.80;;
71303;SDS011;59091;47.446;19.148;2023-03-20T07:24:35;16.73;;;8.82;;
71303;SDS011;59091;47.446;19.148;2023-03-20T07:27:00;18.20;;;8.93;;
71303;SDS011;59091;47.446;19.148;2023-03-20T07:29:26;14.88;;;9.02;;
71303;SDS011;59091;47.446;19.148;2023-03-20T07:31:51;16.13;;;9.15;;
71303;SDS011;59091;47.446;19.148;2023-03-20T07:34:17;15.52;;;8.60;;
71303;SDS011;59091;47.446;19.148;2023-03-20T07:36:42;17.05;;;9.63;;
71303;SDS011;59091;47.446;19.148;2023-03-20T07:39:09;14.18;;;8.60;;
71303;SDS011;59091;47.446;19.148;2023-03-20T07:41:36;15.57;;;8.93;;
71303;SDS011;59091;47.446;19.148;2023-03-20T07:44:01;24.40;;;8.45;;
71303;SDS011;59091;47.446;19.148;2023-03-20T07:46:27;16.80;;;8.45;;
71303;SDS011;59091;47.446;19.148;2023-03-20T07:48:52;16.70;;;8.20;;
71303;SDS011;59091;47.446;19.148;2023-03-20T07:51:17;15.10;;;8.98;;
71303;SDS011;59091;47.446;19.148;2023-03-20T07:53:43;17.13;;;8.93;;
71303;SDS011;59091;47.446;19.148;2023-03-20T07:56:09;12.15;;;8.18;;
71303;SDS011;59091;47.446;19.148;2023-03-20T07:58:34;14.27;;;8.50;;
71303;SDS011;59091;47.446;19.148;2023-03-20T08:01:00;15.25;;;7.32;;
71303;SDS011;59091;47.446;19.148;2023-03-20T08:03:26;13.20;;;7.22;;
71303;SDS011;59091;47.446;19.148;2023-03-20T08:05:52;13.82;;;7.70;;
71303;SDS011;59091;47.446;19.148;2023-03-20T08:08:18;11.30;;;7.38;;
71303;SDS011;59091;47.446;19.148;2023-03-20T08:10:43;16.58;;;8.07;;
71303;SDS011;59091;47.446;19.148;2023-03-20T08:13:09;15.80;;;7.70;;
71303;SDS011;59091;47.446;19.148;2023-03-20T08:15:34;13.00;;;7.43;;
71303;SDS011;59091;47.446;19.148;2023-03-20T08:18:00;13.50;;;7.70;;
71303;SDS011;59091;47.446;19.148;2023-03-20T08:20:25;9.65;;;6.95;;
71303;SDS011;59091;47.446;19.148;2023-03-20T08:22:51;12.57;;;7.80;;
71303;SDS011;59091;47.446;19.148;2023-03-20T08:25:16;11.35;;;6.78;;
71303;SDS011;59091;47.446;19.148;2023-03-20T08:27:42;18.13;;;7.75;;
71303;SDS011;59091;47.446;19.148;2023-03-20T08:30:07;14.50;;;7.00;;
71303;SDS011;59091;47.446;19.148;2023-03-20T08:32:34;13.05;;;7.65;;
71303;SDS011;59091;47.446;19.148;2023-03-20T08:35:00;13.80;;;6.88;;
71303;SDS011;59091;47.446;19.148;2023-03-20T08:37:26;14.80;;;7.40;;
71303;SDS011;59091;47.446;19.148;2023-03-20T08:39:52;20.67;;;7.18;;
71303;SDS011;59091;47.446;19.148;2023-03-20T08:42:17;24.10;;;7.63;;
71303;SDS011;59091;47.446;19.148;2023-03-20T08:44:43;62.33;;;10.02;;
71303;SDS011;59091;47.446;19.148;2023-03-20T08:47:09;16.92;;;6.85;;
71303;SDS011;59091;47.446;19.148;2023-03-20T08:49:36;11.05;;;6.75;;
71303;SDS011;59091;47.446;19.148;2023-03-20T08:52:01;11.02;;;6.28;;
71303;SDS011;59091;47.446;19.148;2023-03-20T08:54:27;10.68;;;6.05;;
71303;SDS011;59091;47.446;19.148;2023-03-20T08:56:53;11.93;;;6.00;;
71303;SDS011;59091;47.446;19.148;2023-03-20T08:59:18;10.27;;;6.00;;
71303;SDS011;59091;47.446;19.148;2023-03-20T09:01:44;15.20;;;6.47;;
71303;SDS011;59091;47.446;19.148;2023-03-20T09:04:11;15.43;;;6.30;;
71303;SDS011;59091;47.446;19.148;2023-03-20T09:06:38;17.17;;;6.15;;
71303;SDS011;59091;47.446;19.148;2023-03-20T09:09:04;13.57;;;6.28;;
71303;SDS011;59091;47.446;19.148;2023-03-20T09:11:31;16.73;;;5.70;;
71303;SDS011;59091;47.446;19.148;2023-03-20T09:13:57;9.35;;;6.25;;
71303;SDS011;59091;47.446;19.148;2023-03-20T09:16:23;9.57;;;5.88;;
71303;SDS011;59091;47.446;19.148;2023-03-20T09:18:49;13.65;;;6.50;;
71303;SDS011;59091;47.446;19.148;2023-03-20T09:21:14;9.55;;;5.95;;
71303;SDS011;59091;47.446;19.148;2023-03-20T09:23:40;15.50;;;6.07;;
71303;SDS011;59091;47.446;19.148;2023-03-20T09:26:05;9.07;;;5.22;;
71303;SDS011;59091;47.446;19.148;2023-03-20T09:28:31;10.95;;;6.10;;
71303;SDS011;59091;47.446;19.148;2023-03-20T09:30:57;9.65;;;6.30;;
71303;SDS011;59091;47.446;19.148;2023-03-20T09:33:23;12.00;;;5.63;;
71303;SDS011;59091;47.446;19.148;2023-03-20T09:35:49;12.10;;;5.88;;
71303;SDS011;59091;47.446;19.148;2023-03-20T09:38:15;9.10;;;5.72;;
71303;SDS011;59091;47.446;19.148;2023-03-20T09:46:01;10.27;;;5.65;;
71303;SDS011;59091;47.446;19.148;2023-03-20T09:51:20;10.05;;;5.78;;
71303;SDS011;59091;47.446;19.148;2023-03-20T09:54:52;9.68;;;6.07;;
71303;SDS011;59091;47.446;19.148;2023-03-20T09:57:03;11.05;;;5.72;;
71303;SDS011;59091;47.446;19.148;2023-03-20T09:59:31;13.13;;;5.90;;
71303;SDS011;59091;47.446;19.148;2023-03-20T10:02:18;12.32;;;5.93;;
71303;SDS011;59091;47.446;19.148;2023-03-20T10:05:11;10.52;;;5.88;;
71303;SDS011;59091;47.446;19.148;2023-03-20T10:07:43;7.50;;;5.30;;
71303;SDS011;59091;47.446;19.148;2023-03-20T10:10:12;10.48;;;6.05;;
71303;SDS011;59091;47.446;19.148;2023-03-20T10:12:47;8.55;;;5.30;;
71303;SDS011;59091;47.446;19.148;2023-03-20T10:20:58;13.80;;;5.90;;
71303;SDS011;59091;47.446;19.148;2023-03-20T10:24:02;12.63;;;6.32;;
71303;SDS011;59091;47.446;19.148;2023-03-20T10:26:33;10.50;;;6.13;;
71303;SDS011;59091;47.446;19.148;2023-03-20T10:29:01;10.50;;;6.32;;
71303;SDS011;59091;47.446;19.148;2023-03-20T10:39:50;16.58;;;6.65;;
71303;SDS011;59091;47.446;19.148;2023-03-20T10:42:27;8.13;;;6.00;;
71303;SDS011;59091;47.446;19.148;2023-03-20T10:45:04;11.93;;;6.30;;
71303;SDS011;59091;47.446;19.148;2023-03-20T10:47:32;11.75;;;5.95;;
71303;SDS011;59091;47.446;19.148;2023-03-20T10:50:04;11.27;;;6.10;;
71303;SDS011;59091;47.446;19.148;2023-03-20T10:52:36;10.25;;;6.35;;
71303;SDS011;59091;47.446;19.148;2023-03-20T10:55:05;10.15;;;6.22;;
71303;SDS011;59091;47.446;19.148;2023-03-20T10:57:37;14.13;;;6.85;;
71303;SDS011;59091;47.446;19.148;2023-03-20T11:00:06;13.70;;;6.35;;
71303;SDS011;59091;47.446;19.148;2023-03-20T11:02:43;9.88;;;6.15;;
71303;SDS011;59091;47.446;19.148;2023-03-20T11:05:22;9.45;;;5.80;;
71303;SDS011;59091;47.446;19.148;2023-03-20T11:08:00;14.10;;;6.40;;
71303;SDS011;59091;47.446;19.148;2023-03-20T11:10:33;12.35;;;6.47;;
71303;SDS011;59091;47.446;19.148;2023-03-20T11:15:53;10.85;;;6.45;;
71303;SDS011;59091;47.446;19.148;2023-03-20T11:18:20;8.68;;;6.03;;
71303;SDS011;59091;47.446;19.148;2023-03-20T11:20:53;11.13;;;6.93;;
71303;SDS011;59091;47.446;19.148;2023-03-20T11:23:24;11.13;;;6.18;;
71303;SDS011;59091;47.446;19.148;2023-03-20T11:26:00;10.45;;;6.65;;
71303;SDS011;59091;47.446;19.148;2023-03-20T11:30:59;10.18;;;6.32;;
71303;SDS011;59091;47.446;19.148;2023-03-20T11:33:43;11.43;;;6.40;;
71303;SDS011;59091;47.446;19.148;2023-03-20T11:36:23;13.57;;;6.38;;
71303;SDS011;59091;47.446;19.148;2023-03-20T11:38:51;11.23;;;6.53;;
71303;SDS011;59091;47.446;19.148;2023-03-20T11:41:24;11.60;;;6.30;;
71303;SDS011;59091;47.446;19.148;2023-03-20T11:43:52;12.68;;;6.97;;
71303;SDS011;59091;47.446;19.148;2023-03-20T11:46:18;13.73;;;6.82;;
71303;SDS011;59091;47.446;19.148;2023-03-20T11:48:47;12.63;;;6.32;;
71303;SDS011;59091;47.446;19.148;2023-03-20T11:51:27;17.83;;;7.00;;
71303;SDS011;59091;47.446;19.148;2023-03-20T11:54:05;15.25;;;7.03;;
71303;SDS011;59091;47.446;19.148;2023-03-20T11:56:38;12.25;;;7.05;;
71303;SDS011;59091;47.446;19.148;2023-03-20T11:59:16;10.25;;;6.65;;
71303;SDS011;59091;47.446;19.148;2023-03-20T12:01:43;10.10;;;6.38;;
71303;SDS011;59091;47.446;19.148;2023-03-20T12:09:51;15.02;;;6.93;;
71303;SDS011;59091;47.446;19.148;2023-03-20T12:14:57;15.25;;;7.65;;
71303;SDS011;59091;47.446;19.148;2023-03-20T12:20:15;14.00;;;8.27;;
71303;SDS011;59091;47.446;19.148;2023-03-20T12:28:25;10.75;;;7.75;;
71303;SDS011;59091;47.446;19.148;2023-03-20T12:36:01;14.90;;;8.05;;
71303;SDS011;59091;47.446;19.148;2023-03-20T12:38:30;14.32;;;7.80;;
71303;SDS011;59091;47.446;19.148;2023-03-20T12:44:01;14.75;;;8.10;;
71303;SDS011;59091;47.446;19.148;2023-03-20T12:58:34;14.38;;;8.15;;
71303;SDS011;59091;47.446;19.148;2023-03-20T13:12:09;12.65;;;6.30;;
71303;SDS011;59091;47.446;19.148;2023-03-20T13:20:34;12.98;;;7.85;;
71303;SDS011;59091;47.446;19.148;2023-03-20T13:22:53;18.75;;;7.20;;
71303;SDS011;59091;47.446;19.148;2023-03-20T13:25:37;12.95;;;7.60;;
71303;SDS011;59091;47.446;19.148;2023-03-20T13:31:01;16.10;;;8.23;;
71303;SDS011;59091;47.446;19.148;2023-03-20T13:36:55;11.98;;;7.57;;
71303;SDS011;59091;47.446;19.148;2023-03-20T13:42:16;13.73;;;8.15;;
71303;SDS011;59091;47.446;19.148;2023-03-20T13:44:45;13.80;;;7.93;;
71303;SDS011;59091;47.446;19.148;2023-03-20T13:47:20;13.82;;;8.27;;
71303;SDS011;59091;47.446;19.148;2023-03-20T13:52:37;18.83;;;7.78;;
71303;SDS011;59091;47.446;19.148;2023-03-20T14:03:26;9.65;;;7.13;;
71303;SDS011;59091;47.446;19.148;2023-03-20T14:05:55;12.20;;;7.65;;
71303;SDS011;59091;47.446;19.148;2023-03-20T14:13:33;12.70;;;7.68;;
71303;SDS011;59091;47.446;19.148;2023-03-20T14:16:00;12.02;;;7.40;;
71303;SDS011;59091;47.446;19.148;2023-03-20T14:18:27;11.52;;;7.78;;
71303;SDS011;59091;47.446;19.148;2023-03-20T14:20:56;16.95;;;8.32;;
71303;SDS011;59091;47.446;19.148;2023-03-20T14:23:32;11.32;;;7.68;;
71303;SDS011;59091;47.446;19.148;2023-03-20T14:26:20;13.27;;;7.82;;
71303;SDS011;59091;47.446;19.148;2023-03-20T14:31:22;13.77;;;7.53;;
71303;SDS011;59091;47.446;19.148;2023-03-20T14:42:35;15.95;;;7.40;;
71303;SDS011;59091;47.446;19.148;2023-03-20T14:51:23;14.15;;;6.80;;
71303;SDS011;59091;47.446;19.148;2023-03-20T14:56:53;13.45;;;7.20;;
71303;SDS011;59091;47.446;19.148;2023-03-20T14:59:20;11.43;;;7.07;;
71303;SDS011;59091;47.446;19.148;2023-03-20T15:06:55;16.42;;;7.57;;
71303;SDS011;59091;47.446;19.148;2023-03-20T15:09:24;11.10;;;7.28;;
71303;SDS011;59091;47.446;19.148;2023-03-20T15:11:51;12.55;;;7.35;;
71303;SDS011;59091;47.446;19.148;2023-03-20T15:14:21;14.02;;;7.97;;
71303;SDS011;59091;47.446;19.148;2023-03-20T15:19:24;15.23;;;7.63;;
71303;SDS011;59091;47.446;19.148;2023-03-20T15:21:50;12.73;;;7.13;;
71303;SDS011;59091;47.446;19.148;2023-03-20T15:24:17;11.25;;;7.80;;
71303;SDS011;59091;47.446;19.148;2023-03-20T15:26:53;12.00;;;7.60;;
71303;SDS011;59091;47.446;19.148;2023-03-20T15:29:24;15.00;;;7.88;;
71303;SDS011;59091;47.446;19.148;2023-03-20T15:31:52;11.60;;;6.93;;
71303;SDS011;59091;47.446;19.148;2023-03-20T15:34:21;13.15;;;7.22;;
71303;SDS011;59091;47.446;19.148;2023-03-20T15:36:49;15.10;;;7.82;;
71303;SDS011;59091;47.446;19.148;2023-03-20T15:39:20;11.32;;;7.72;;
71303;SDS011;59091;47.446;19.148;2023-03-20T15:41:51;10.27;;;7.25;;
71303;SDS011;59091;47.446;19.148;2023-03-20T15:44:22;16.67;;;8.45;;
71303;SDS011;59091;47.446;19.148;2023-03-20T15:46:56;18.70;;;7.90;;
71303;SDS011;59091;47.446;19.148;2023-03-20T15:49:27;12.80;;;7.68;;
71303;SDS011;59091;47.446;19.148;2023-03-20T15:51:55;15.00;;;7.75;;
71303;SDS011;59091;47.446;19.148;2023-03-20T15:54:23;14.45;;;7.28;;
71303;SDS011;59091;47.446;19.148;2023-03-20T15:56:50;13.93;;;7.90;;
71303;SDS011;59091;47.446;19.148;2023-03-20T15:59:17;12.00;;;7.13;;
71303;SDS011;59091;47.446;19.148;2023-03-20T16:01:45;12.45;;;7.22;;
71303;SDS011;59091;47.446;19.148;2023-03-20T16:04:14;11.55;;;6.90;;
71303;SDS011;59091;47.446;19.148;2023-03-20T16:06:45;15.18;;;8.02;;
71303;SDS011;59091;47.446;19.148;2023-03-20T16:09:21;14.55;;;7.93;;
71303;SDS011;59091;47.446;19.148;2023-03-20T16:11:48;11.13;;;8.05;;
71303;SDS011;59091;47.446;19.148;2023-03-20T16:14:24;13.73;;;9.15;;
71303;SDS011;59091;47.446;19.148;2023-03-20T16:16:52;14.88;;;7.78;;
71303;SDS011;59091;47.446;19.148;2023-03-20T16:19:20;11.00;;;7.22;;
71303;SDS011;59091;47.446;19.148;2023-03-20T16:21:50;10.15;;;6.93;;
71303;SDS011;59091;47.446;19.148;2023-03-20T16:24:23;15.43;;;6.45;;
71303;SDS011;59091;47.446;19.148;2023-03-20T16:26:52;10.18;;;6.25;;
71303;SDS011;59091;47.446;19.148;2023-03-20T16:29:18;12.80;;;6.78;;
71303;SDS011;59091;47.446;19.148;2023-03-20T16:31:47;10.27;;;6.20;;
71303;SDS011;59091;47.446;19.148;2023-03-20T16:34:20;11.10;;;6.00;;
71303;SDS011;59091;47.446;19.148;2023-03-20T16:36:57;13.27;;;6.13;;
71303;SDS011;59091;47.446;19.148;2023-03-20T16:39:27;9.93;;;5.97;;
71303;SDS011;59091;47.446;19.148;2023-03-20T16:44:54;9.20;;;6.10;;
71303;SDS011;59091;47.446;19.148;2023-03-20T16:47:34;10.07;;;6.33;;
71303;SDS011;59091;47.446;19.148;2023-03-20T16:52:40;7.85;;;5.82;;
71303;SDS011;59091;47.446;19.148;2023-03-20T16:55:14;10.70;;;6.10;;
71303;SDS011;59091;47.446;19.148;2023-03-20T16:57:41;10.35;;;5.72;;
71303;SDS011;59091;47.446;19.148;2023-03-20T17:00:18;10.18;;;6.00;;
71303;SDS011;59091;47.446;19.148;2023-03-20T17:02:59;10.35;;;6.25;;
71303;SDS011;59091;47.446;19.148;2023-03-20T17:08:37;9.82;;;6.97;;
71303;SDS011;59091;47.446;19.148;2023-03-20T17:11:12;10.25;;;6.85;;
71303;SDS011;59091;47.446;19.148;2023-03-20T17:13:59;9.57;;;6.47;;
71303;SDS011;59091;47.446;19.148;2023-03-20T17:16:26;11.68;;;7.13;;
71303;SDS011;59091;47.446;19.148;2023-03-20T17:21:30;11.75;;;6.72;;
71303;SDS011;59091;47.446;19.148;2023-03-20T17:23:56;17.77;;;7.45;;
71303;SDS011;59091;47.446;19.148;2023-03-20T17:26:22;10.50;;;6.63;;
71303;SDS011;59091;47.446;19.148;2023-03-20T17:28:48;11.30;;;7.25;;
71303;SDS011;59091;47.446;19.148;2023-03-20T17:31:14;12.75;;;6.85;;
71303;SDS011;59091;47.446;19.148;2023-03-20T17:33:41;13.63;;;7.72;;
71303;SDS011;59091;47.446;19.148;2023-03-20T17:36:09;11.30;;;7.38;;
71303;SDS011;59091;47.446;19.148;2023-03-20T17:38:40;13.93;;;7.57;;